sensor_id;sensor_type;location;lat;lon;timestamp;P1;P2;P0
69746;PMS7003;57018;50.278;19.134;2023-07-30T00:01:24;2.67;2.00;1.00
69746;PMS7003;57018;50.278;19.134;2023-07-30T00:03:54;4.00;4.00;2.00
69746;PMS7003;57018;50.278;19.134;2023-07-30T00:06:24;3.00;3.00;1.67
69746;PMS7003;57018;50.278;19.134;2023-07-30T00:08:54;4.50;3.00;1.00
69746;PMS7003;57018;50.278;19.134;2023-07-30T00:11:24;1.00;1.00;1.00
69746;PMS7003;57018;50.278;19.134;2023-07-30T00:13:54;3.00;3.00;3.00
69746;PMS7003;57018;50.278;19.134;2023-07-30T00:16:23;3.00;1.00;1.00
69746;PMS7003;57018;50.278;19.134;2023-07-30T00:18:54;2.50;2.00;2.00
69746;PMS7003;57018;50.278;19.134;2023-07-30T00:21:24;3.00;1.00;1.00
69746;PMS7003;57018;50.278;19.134;2023-07-30T00:23:54;3.00;3.00;2.00
69746;PMS7003;57018;50.278;19.134;2023-07-30T00:26:24;2.00;2.00;1.00
69746;PMS7003;57018;50.278;19.134;2023-07-30T00:28:56;1.67;1.67;1.33
69746;PMS7003;57018;50.278;19.134;2023-07-30T00:31:26;4.00;4.00;2.00
69746;PMS7003;57018;50.278;19.134;2023-07-30T00:33:55;2.00;2.00;1.50
69746;PMS7003;57018;50.278;19.134;2023-07-30T00:36:25;1.00;1.00;1.00
69746;PMS7003;57018;50.278;19.134;2023-07-30T00:38:55;1.50;1.50;1.00
69746;PMS7003;57018;50.278;19.134;2023-07-30T00:41:25;2.00;2.00;1.00
69746;PMS7003;57018;50.278;19.134;2023-07-30T00:43:55;3.50;3.50;2.00
69746;PMS7003;57018;50.278;19.134;2023-07-30T00:46:24;2.00;2.00;1.50
69746;PMS7003;57018;50.278;19.134;2023-07-30T00:48:54;5.50;2.00;2.00
69746;PMS7003;57018;50.278;19.134;2023-07-30T00:51:24;5.00;2.00;2.00
69746;PMS7003;57018;50.278;19.134;2023-07-30T00:53:57;4.67;4.67;3.00
69746;PMS7003;57018;50.278;19.134;2023-07-30T00:56:27;4.00;2.00;1.50
69746;PMS7003;57018;50.278;19.134;2023-07-30T00:58:58;3.00;3.00;1.00
69746;PMS7003;57018;50.278;19.134;2023-07-30T01:01:28;2.50;2.50;2.00
69746;PMS7003;57018;50.278;19.134;2023-07-30T01:04:01;3.00;3.00;2.50
69746;PMS7003;57018;50.278;19.134;2023-07-30T01:06:31;2.00;2.00;2.00
69746;PMS7003;57018;50.278;19.134;2023-07-30T01:09:01;2.00;2.00;2.00
69746;PMS7003;57018;50.278;19.134;2023-07-30T01:11:31;3.67;3.00;2.33
69746;PMS7003;57018;50.278;19.134;2023-07-30T01:14:02;4.00;4.00;2.50
69746;PMS7003;57018;50.278;19.134;2023-07-30T01:16:33;2.00;2.00;1.00
69746;PMS7003;57018;50.278;19.134;2023-07-30T01:19:02;2.00;2.00;1.00
69746;PMS7003;57018;50.278;19.134;2023-07-30T01:21:33;2.00;2.00;1.67
69746;PMS7003;57018;50.278;19.134;2023-07-30T01:24:03;3.00;3.00;2.00
69746;PMS7003;57018;50.278;19.134;2023-07-30T01:26:34;2.00;2.00;1.00
69746;PMS7003;57018;50.278;19.134;2023-07-30T01:29:11;2.00;2.00;1.00
69746;PMS7003;57018;50.278;19.134;2023-07-30T01:31:47;1.00;1.00;1.00
69746;PMS7003;57018;50.278;19.134;2023-07-30T01:34:23;4.00;4.00;1.50
69746;PMS7003;57018;50.278;19.134;2023-07-30T01:36:55;2.00;2.00;1.00
69746;PMS7003;57018;50.278;19.134;2023-07-30T01:39:26;1.00;1.00;0.00
69746;PMS7003;57018;50.278;19.134;2023-07-30T01:41:57;2.00;2.00;1.00
69746;PMS7003;57018;50.278;19.134;2023-07-30T01:44:27;2.00;2.00;2.00
69746;PMS7003;57018;50.278;19.134;2023-07-30T01:46:57;2.50;2.00;0.50
69746;PMS7003;57018;50.278;19.134;2023-07-30T01:49:27;2.00;2.00;1.50
69746;PMS7003;57018;50.278;19.134;2023-07-30T01:51:56;1.00;1.00;1.00
69746;PMS7003;57018;50.278;19.134;2023-07-30T01:54:26;2.00;2.00;2.00
69746;PMS7003;57018;50.278;19.134;2023-07-30T01:56:56;3.00;3.00;2.00
69746;PMS7003;57018;50.278;19.134;2023-07-30T01:59:27;2.00;2.00;1.00
69746;PMS7003;57018;50.278;19.134;2023-07-30T02:01:57;1.50;1.50;1.00
69746;PMS7003;57018;50.278;19.134;2023-07-30T02:04:27;2.00;1.00;0.00
69746;PMS7003;57018;50.278;19.134;2023-07-30T02:06:57;1.00;1.00;1.00
69746;PMS7003;57018;50.278;19.134;2023-07-30T02:09:27;2.00;2.00;1.33
69746;PMS7003;57018;50.278;19.134;2023-07-30T02:11:56;5.00;5.00;2.00
69746;PMS7003;57018;50.278;19.134;2023-07-30T02:14:26;6.00;4.50;2.50
69746;PMS7003;57018;50.278;19.134;2023-07-30T02:16:56;4.00;4.00;3.00
69746;PMS7003;57018;50.278;19.134;2023-07-30T02:19:26;3.00;3.00;2.00
69746;PMS7003;57018;50.278;19.134;2023-07-30T02:21:56;4.00;4.00;2.50
69746;PMS7003;57018;50.278;19.134;2023-07-30T02:24:26;4.00;4.00;3.00
69746;PMS7003;57018;50.278;19.134;2023-07-30T02:26:56;4.00;4.00;2.00
69746;PMS7003;57018;50.278;19.134;2023-07-30T02:29:25;4.00;4.00;2.00
69746;PMS7003;57018;50.278;19.134;2023-07-30T02:31:55;7.50;6.00;4.00
69746;PMS7003;57018;50.278;19.134;2023-07-30T02:34:26;8.00;8.00;5.00
69746;PMS7003;57018;50.278;19.134;2023-07-30T02:36:56;5.33;3.00;2.00
69746;PMS7003;57018;50.278;19.134;2023-07-30T02:39:26;10.50;8.50;6.00
69746;PMS7003;57018;50.278;19.134;2023-07-30T02:41:55;9.00;9.00;7.00
69746;PMS7003;57018;50.278;19.134;2023-07-30T02:44:25;13.00;13.00;7.00
69746;PMS7003;57018;50.278;19.134;2023-07-30T02:46:55;7.00;5.00;4.00
69746;PMS7003;57018;50.278;19.134;2023-07-30T02:49:25;8.00;8.00;5.00
69746;PMS7003;57018;50.278;19.134;2023-07-30T02:51:55;8.50;7.50;3.50
69746;PMS7003;57018;50.278;19.134;2023-07-30T02:54:25;5.00;5.00;4.00
69746;PMS7003;57018;50.278;19.134;2023-07-30T02:56:54;4.00;4.00;3.00
69746;PMS7003;57018;50.278;19.134;2023-07-30T02:59:24;7.00;7.00;6.00
69746;PMS7003;57018;50.278;19.134;2023-07-30T03:01:55;6.50;6.50;4.00
69746;PMS7003;57018;50.278;19.134;2023-07-30T03:04:25;9.00;8.00;6.00
69746;PMS7003;57018;50.278;19.134;2023-07-30T03:06:55;9.25;6.75;6.50
69746;PMS7003;57018;50.278;19.134;2023-07-30T03:09:24;6.50;6.50;3.50
69746;PMS7003;57018;50.278;19.134;2023-07-30T03:11:55;8.50;8.50;6.00
69746;PMS7003;57018;50.278;19.134;2023-07-30T03:14:24;8.00;7.00;7.00
69746;PMS7003;57018;50.278;19.134;2023-07-30T03:16:54;13.50;11.00;7.50
69746;PMS7003;57018;50.278;19.134;2023-07-30T03:19:24;9.00;8.00;7.00
69746;PMS7003;57018;50.278;19.134;2023-07-30T03:21:54;13.00;10.67;8.33
69746;PMS7003;57018;50.278;19.134;2023-07-30T03:24:24;12.00;9.00;8.00
69746;PMS7003;57018;50.278;19.134;2023-07-30T03:26:54;9.50;9.00;6.50
69746;PMS7003;57018;50.278;19.134;2023-07-30T03:29:24;8.00;8.00;7.00
69746;PMS7003;57018;50.278;19.134;2023-07-30T03:31:53;8.00;8.00;6.00
69746;PMS7003;57018;50.278;19.134;2023-07-30T03:34:23;9.00;9.00;6.50
69746;PMS7003;57018;50.278;19.134;2023-07-30T03:36:53;9.00;7.00;6.00
69746;PMS7003;57018;50.278;19.134;2023-07-30T03:39:23;7.00;7.00;3.00
69746;PMS7003;57018;50.278;19.134;2023-07-30T03:41:53;6.00;6.00;4.00
69746;PMS7003;57018;50.278;19.134;2023-07-30T03:44:23;8.00;8.00;5.00
69746;PMS7003;57018;50.278;19.134;2023-07-30T03:46:52;9.00;9.00;7.50
69746;PMS7003;57018;50.278;19.134;2023-07-30T03:49:22;3.00;3.00;1.00
69746;PMS7003;57018;50.278;19.134;2023-07-30T03:51:52;7.00;7.00;5.00
69746;PMS7003;57018;50.278;19.134;2023-07-30T03:54:22;10.00;8.00;6.00
69746;PMS7003;57018;50.278;19.134;2023-07-30T03:56:52;8.00;7.00;4.00
69746;PMS7003;57018;50.278;19.134;2023-07-30T03:59:22;8.50;7.00;4.00
69746;PMS7003;57018;50.278;19.134;2023-07-30T04:01:52;13.00;7.00;4.00
69746;PMS7003;57018;50.278;19.134;2023-07-30T04:04:22;8.50;7.00;5.00
69746;PMS7003;57018;50.278;19.134;2023-07-30T04:06:52;9.00;9.00;5.00
69746;PMS7003;57018;50.278;19.134;2023-07-30T04:11:50;14.00;11.00;9.00
69746;PMS7003;57018;50.278;19.134;2023-07-30T04:14:20;14.00;12.00;8.50
69746;PMS7003;57018;50.278;19.134;2023-07-30T04:16:50;8.00;8.00;5.00
69746;PMS7003;57018;50.278;19.134;2023-07-30T04:19:20;8.00;7.00;4.00
69746;PMS7003;57018;50.278;19.134;2023-07-30T04:21:49;8.50;7.00;5.00
69746;PMS7003;57018;50.278;19.134;2023-07-30T04:24:20;8.00;7.00;4.00
69746;PMS7003;57018;50.278;19.134;2023-07-30T04:26:54;8.50;8.50;5.00
69746;PMS7003;57018;50.278;19.134;2023-07-30T04:29:24;18.00;16.00;10.00
69746;PMS7003;57018;50.278;19.134;2023-07-30T04:31:54;28.00;25.00;16.00
69746;PMS7003;57018;50.278;19.134;2023-07-30T04:34:24;16.00;14.00;8.50
69746;PMS7003;57018;50.278;19.134;2023-07-30T04:36:54;8.50;7.50;5.50
69746;PMS7003;57018;50.278;19.134;2023-07-30T04:39:24;7.00;6.33;5.00
69746;PMS7003;57018;50.278;19.134;2023-07-30T04:41:53;7.00;6.00;4.00
69746;PMS7003;57018;50.278;19.134;2023-07-30T04:44:23;5.00;5.00;4.00
69746;PMS7003;57018;50.278;19.134;2023-07-30T04:46:53;2.00;2.00;2.00
69746;PMS7003;57018;50.278;19.134;2023-07-30T04:49:23;1.67;1.67;0.67
69746;PMS7003;57018;50.278;19.134;2023-07-30T04:51:53;3.00;3.00;3.00
69746;PMS7003;57018;50.278;19.134;2023-07-30T04:54:23;6.50;5.50;4.00
69746;PMS7003;57018;50.278;19.134;2023-07-30T04:56:53;3.50;3.50;3.00
69746;PMS7003;57018;50.278;19.134;2023-07-30T04:59:23;8.00;8.00;4.50
69746;PMS7003;57018;50.278;19.134;2023-07-30T05:01:52;9.00;5.00;4.00
69746;PMS7003;57018;50.278;19.134;2023-07-30T05:04:22;5.00;5.00;3.00
69746;PMS7003;57018;50.278;19.134;2023-07-30T05:06:52;5.00;3.00;3.00
69746;PMS7003;57018;50.278;19.134;2023-07-30T05:09:22;4.00;4.00;3.00
69746;PMS7003;57018;50.278;19.134;2023-07-30T05:11:52;6.00;5.00;3.00
69746;PMS7003;57018;50.278;19.134;2023-07-30T05:14:22;7.00;7.00;5.00
69746;PMS7003;57018;50.278;19.134;2023-07-30T05:16:52;4.00;4.00;2.00
69746;PMS7003;57018;50.278;19.134;2023-07-30T05:19:22;6.50;6.50;4.00
69746;PMS7003;57018;50.278;19.134;2023-07-30T05:21:52;7.00;4.00;2.50
69746;PMS7003;57018;50.278;19.134;2023-07-30T05:24:22;3.00;3.00;2.00
69746;PMS7003;57018;50.278;19.134;2023-07-30T05:26:52;4.00;2.00;1.00
69746;PMS7003;57018;50.278;19.134;2023-07-30T05:29:21;6.00;4.00;3.00
69746;PMS7003;57018;50.278;19.134;2023-07-30T05:31:51;5.00;4.00;3.00
69746;PMS7003;57018;50.278;19.134;2023-07-30T05:34:21;7.00;6.00;4.00
69746;PMS7003;57018;50.278;19.134;2023-07-30T05:36:51;6.00;4.00;3.00
69746;PMS7003;57018;50.278;19.134;2023-07-30T05:39:21;3.00;3.00;2.00
69746;PMS7003;57018;50.278;19.134;2023-07-30T05:41:51;4.00;4.00;3.00
69746;PMS7003;57018;50.278;19.134;2023-07-30T05:44:21;2.50;2.50;1.50
69746;PMS7003;57018;50.278;19.134;2023-07-30T05:46:51;1.00;1.00;1.00
69746;PMS7003;57018;50.278;19.134;2023-07-30T05:49:21;3.00;3.00;2.00
69746;PMS7003;57018;50.278;19.134;2023-07-30T05:51:50;3.00;3.00;2.00
69746;PMS7003;57018;50.278;19.134;2023-07-30T05:54:20;2.00;2.00;2.00
69746;PMS7003;57018;50.278;19.134;2023-07-30T05:56:50;6.00;5.50;3.00
69746;PMS7003;57018;50.278;19.134;2023-07-30T05:59:20;3.00;3.00;2.00
69746;PMS7003;57018;50.278;19.134;2023-07-30T06:01:51;5.00;5.00;3.00
69746;PMS7003;57018;50.278;19.134;2023-07-30T06:04:21;4.00;4.00;2.33
69746;PMS7003;57018;50.278;19.134;2023-07-30T06:06:53;3.00;3.00;3.00
69746;PMS7003;57018;50.278;19.134;2023-07-30T06:09:23;6.00;6.00;4.00
69746;PMS7003;57018;50.278;19.134;2023-07-30T06:11:53;6.00;5.00;3.00
69746;PMS7003;57018;50.278;19.134;2023-07-30T06:14:23;7.00;5.00;3.00
69746;PMS7003;57018;50.278;19.134;2023-07-30T06:16:53;3.00;2.00;1.00
69746;PMS7003;57018;50.278;19.134;2023-07-30T06:19:24;3.00;3.00;1.50
69746;PMS7003;57018;50.278;19.134;2023-07-30T06:21:57;2.00;2.00;2.00
69746;PMS7003;57018;50.278;19.134;2023-07-30T06:24:26;2.00;2.00;1.33
69746;PMS7003;57018;50.278;19.134;2023-07-30T06:26:57;3.00;2.00;2.00
69746;PMS7003;57018;50.278;19.134;2023-07-30T06:29:27;4.00;3.00;2.00
69746;PMS7003;57018;50.278;19.134;2023-07-30T06:31:57;9.00;7.00;5.00
69746;PMS7003;57018;50.278;19.134;2023-07-30T06:36:57;5.00;3.00;2.00
69746;PMS7003;57018;50.278;19.134;2023-07-30T06:39:27;1.50;1.50;1.00
69746;PMS7003;57018;50.278;19.134;2023-07-30T06:41:57;4.00;4.00;3.00
69746;PMS7003;57018;50.278;19.134;2023-07-30T06:44:36;3.00;3.00;2.00
69746;PMS7003;57018;50.278;19.134;2023-07-30T06:47:05;6.00;6.00;4.67
69746;PMS7003;57018;50.278;19.134;2023-07-30T06:49:36;2.00;2.00;1.00
69746;PMS7003;57018;50.278;19.134;2023-07-30T06:52:06;2.00;2.00;1.00
69746;PMS7003;57018;50.278;19.134;2023-07-30T06:54:36;5.00;2.00;2.00
69746;PMS7003;57018;50.278;19.134;2023-07-30T06:59:34;1.33;1.33;0.67
69746;PMS7003;57018;50.278;19.134;2023-07-30T07:02:05;3.00;3.00;2.00
69746;PMS7003;57018;50.278;19.134;2023-07-30T07:04:35;2.00;2.00;1.00
69746;PMS7003;57018;50.278;19.134;2023-07-30T07:07:05;2.00;2.00;2.00
69746;PMS7003;57018;50.278;19.134;2023-07-30T07:09:36;1.00;1.00;1.00
69746;PMS7003;57018;50.278;19.134;2023-07-30T07:12:06;1.00;1.00;1.00
69746;PMS7003;57018;50.278;19.134;2023-07-30T07:14:37;3.00;3.00;1.50
69746;PMS7003;57018;50.278;19.134;2023-07-30T07:17:07;2.00;2.00;1.00
69746;PMS7003;57018;50.278;19.134;2023-07-30T07:19:37;2.75;2.75;2.00
69746;PMS7003;57018;50.278;19.134;2023-07-30T07:22:07;2.00;2.00;1.00
69746;PMS7003;57018;50.278;19.134;2023-07-30T07:24:37;3.33;3.00;1.00
69746;PMS7003;57018;50.278;19.134;2023-07-30T07:27:07;9.00;9.00;7.00
69746;PMS7003;57018;50.278;19.134;2023-07-30T07:29:37;4.00;3.00;3.00
69746;PMS7003;57018;50.278;19.134;2023-07-30T07:32:07;3.50;3.50;2.50
69746;PMS7003;57018;50.278;19.134;2023-07-30T07:34:37;5.00;5.00;3.00
69746;PMS7003;57018;50.278;19.134;2023-07-30T07:37:07;3.00;3.00;3.00
69746;PMS7003;57018;50.278;19.134;2023-07-30T07:39:37;3.50;3.50;2.50
69746;PMS7003;57018;50.278;19.134;2023-07-30T07:44:35;5.00;3.00;2.50
69746;PMS7003;57018;50.278;19.134;2023-07-30T07:47:05;7.00;5.50;4.50
69746;PMS7003;57018;50.278;19.134;2023-07-30T07:49:37;5.00;4.00;2.00
69746;PMS7003;57018;50.278;19.134;2023-07-30T07:52:09;5.00;5.00;4.00
69746;PMS7003;57018;50.278;19.134;2023-07-30T07:54:41;3.00;1.00;1.00
69746;PMS7003;57018;50.278;19.134;2023-07-30T07:57:11;6.00;4.00;3.00
69746;PMS7003;57018;50.278;19.134;2023-07-30T07:59:41;6.00;4.00;2.00
69746;PMS7003;57018;50.278;19.134;2023-07-30T08:02:12;3.00;2.00;1.00
69746;PMS7003;57018;50.278;19.134;2023-07-30T08:04:44;5.00;5.00;3.33
69746;PMS7003;57018;50.278;19.134;2023-07-30T08:07:14;3.00;3.00;2.00
69746;PMS7003;57018;50.278;19.134;2023-07-30T08:09:44;3.00;3.00;2.00
69746;PMS7003;57018;50.278;19.134;2023-07-30T08:12:14;4.00;4.00;3.00
69746;PMS7003;57018;50.278;19.134;2023-07-30T08:14:43;3.00;3.00;2.50
69746;PMS7003;57018;50.278;19.134;2023-07-30T08:17:13;4.00;4.00;3.00
69746;PMS7003;57018;50.278;19.134;2023-07-30T08:19:43;5.00;5.00;3.00
69746;PMS7003;57018;50.278;19.134;2023-07-30T08:22:13;2.00;2.00;2.00
69746;PMS7003;57018;50.278;19.134;2023-07-30T08:24:43;4.00;4.00;2.00
69746;PMS7003;57018;50.278;19.134;2023-07-30T08:27:13;4.00;4.00;3.00
69746;PMS7003;57018;50.278;19.134;2023-07-30T08:29:43;3.00;3.00;2.00
69746;PMS7003;57018;50.278;19.134;2023-07-30T08:32:12;3.00;3.00;2.00
69746;PMS7003;57018;50.278;19.134;2023-07-30T08:34:42;4.00;4.00;2.00
69746;PMS7003;57018;50.278;19.134;2023-07-30T08:37:12;3.00;2.00;1.00
69746;PMS7003;57018;50.278;19.134;2023-07-30T08:39:45;5.00;4.50;3.00
69746;PMS7003;57018;50.278;19.134;2023-07-30T08:42:15;3.50;3.50;2.50
69746;PMS7003;57018;50.278;19.134;2023-07-30T08:44:45;4.00;2.00;2.50
69746;PMS7003;57018;50.278;19.134;2023-07-30T08:47:15;5.00;4.00;3.00
69746;PMS7003;57018;50.278;19.134;2023-07-30T08:49:45;3.50;2.00;2.00
69746;PMS7003;57018;50.278;19.134;2023-07-30T08:52:15;7.00;5.00;3.00
69746;PMS7003;57018;50.278;19.134;2023-07-30T08:54:46;4.00;4.00;3.00
69746;PMS7003;57018;50.278;19.134;2023-07-30T08:57:17;3.00;3.00;2.50
69746;PMS7003;57018;50.278;19.134;2023-07-30T08:59:49;3.00;3.00;2.00
69746;PMS7003;57018;50.278;19.134;2023-07-30T09:02:24;4.00;3.33;3.00
69746;PMS7003;57018;50.278;19.134;2023-07-30T09:05:06;3.00;3.00;3.00
69746;PMS7003;57018;50.278;19.134;2023-07-30T09:07:36;6.00;5.50;2.50
69746;PMS7003;57018;50.278;19.134;2023-07-30T09:10:07;2.50;2.50;2.00
69746;PMS7003;57018;50.278;19.134;2023-07-30T09:12:40;3.33;3.33;2.33
69746;PMS7003;57018;50.278;19.134;2023-07-30T09:15:10;4.00;4.00;3.00
69746;PMS7003;57018;50.278;19.134;2023-07-30T09:17:40;5.00;5.00;4.00
69746;PMS7003;57018;50.278;19.134;2023-07-30T09:20:11;6.33;5.33;4.33
69746;PMS7003;57018;50.278;19.134;2023-07-30T09:22:40;4.50;4.00;3.00
69746;PMS7003;57018;50.278;19.134;2023-07-30T09:25:10;4.50;3.00;2.00
69746;PMS7003;57018;50.278;19.134;2023-07-30T09:27:43;7.00;5.00;4.00
69746;PMS7003;57018;50.278;19.134;2023-07-30T09:30:22;2.00;2.00;2.00
69746;PMS7003;57018;50.278;19.134;2023-07-30T09:32:54;2.00;2.00;2.00
69746;PMS7003;57018;50.278;19.134;2023-07-30T09:35:25;6.50;6.50;4.50
69746;PMS7003;57018;50.278;19.134;2023-07-30T09:37:59;6.00;6.00;5.00
69746;PMS7003;57018;50.278;19.134;2023-07-30T09:40:33;4.75;4.75;3.50
69746;PMS7003;57018;50.278;19.134;2023-07-30T09:43:05;4.67;4.67;3.00
69746;PMS7003;57018;50.278;19.134;2023-07-30T09:45:36;4.00;4.00;3.00
69746;PMS7003;57018;50.278;19.134;2023-07-30T09:48:06;4.00;4.00;2.50
69746;PMS7003;57018;50.278;19.134;2023-07-30T09:50:36;4.00;4.00;3.00
69746;PMS7003;57018;50.278;19.134;2023-07-30T09:53:06;15.50;14.00;10.00
69746;PMS7003;57018;50.278;19.134;2023-07-30T09:55:38;5.00;5.00;3.50
69746;PMS7003;57018;50.278;19.134;2023-07-30T09:58:08;3.00;3.00;2.00
69746;PMS7003;57018;50.278;19.134;2023-07-30T10:00:39;4.00;4.00;3.00
69746;PMS7003;57018;50.278;19.134;2023-07-30T10:03:09;5.00;5.00;3.00
69746;PMS7003;57018;50.278;19.134;2023-07-30T10:05:40;3.67;3.00;3.00
69746;PMS7003;57018;50.278;19.134;2023-07-30T10:08:17;3.00;3.00;3.00
69746;PMS7003;57018;50.278;19.134;2023-07-30T10:10:50;3.00;3.00;2.00
69746;PMS7003;57018;50.278;19.134;2023-07-30T10:13:22;5.00;3.00;3.00
69746;PMS7003;57018;50.278;19.134;2023-07-30T10:15:53;5.00;2.25;2.25
69746;PMS7003;57018;50.278;19.134;2023-07-30T10:18:27;4.00;4.00;3.00
69746;PMS7003;57018;50.278;19.134;2023-07-30T10:21:05;4.00;3.00;1.00
69746;PMS7003;57018;50.278;19.134;2023-07-30T10:23:37;2.00;2.00;2.00
69746;PMS7003;57018;50.278;19.134;2023-07-30T10:26:18;2.00;2.00;1.00
69746;PMS7003;57018;50.278;19.134;2023-07-30T10:31:52;2.00;2.00;1.00
69746;PMS7003;57018;50.278;19.134;2023-07-30T10:34:25;2.00;2.00;2.00
69746;PMS7003;57018;50.278;19.134;2023-07-30T10:37:11;4.00;3.33;3.00
69746;PMS7003;57018;50.278;19.134;2023-07-30T10:39:49;2.00;2.00;2.00
69746;PMS7003;57018;50.278;19.134;2023-07-30T10:42:19;5.00;5.00;3.00
69746;PMS7003;57018;50.278;19.134;2023-07-30T10:44:49;6.00;6.00;5.00
69746;PMS7003;57018;50.278;19.134;2023-07-30T10:47:19;4.00;3.00;2.00
69746;PMS7003;57018;50.278;19.134;2023-07-30T10:49:49;2.00;2.00;2.00
69746;PMS7003;57018;50.278;19.134;2023-07-30T10:52:20;2.00;2.00;2.00
69746;PMS7003;57018;50.278;19.134;2023-07-30T10:55:00;3.00;3.00;2.50
69746;PMS7003;57018;50.278;19.134;2023-07-30T10:57:31;4.00;4.00;3.00
69746;PMS7003;57018;50.278;19.134;2023-07-30T11:00:01;3.00;3.00;3.00
69746;PMS7003;57018;50.278;19.134;2023-07-30T11:02:33;3.00;3.00;3.00
69746;PMS7003;57018;50.278;19.134;2023-07-30T11:05:12;2.50;2.50;2.50
69746;PMS7003;57018;50.278;19.134;2023-07-30T11:07:50;3.00;3.00;2.25
69746;PMS7003;57018;50.278;19.134;2023-07-30T11:10:20;5.00;4.00;3.00
69746;PMS7003;57018;50.278;19.134;2023-07-30T11:12:50;3.00;3.00;2.00
69746;PMS7003;57018;50.278;19.134;2023-07-30T11:15:20;3.50;3.50;2.50
69746;PMS7003;57018;50.278;19.134;2023-07-30T11:20:23;2.00;2.00;1.50
69746;PMS7003;57018;50.278;19.134;2023-07-30T11:22:54;3.00;3.00;3.00
69746;PMS7003;57018;50.278;19.134;2023-07-30T11:27:56;3.00;3.00;3.00
69746;PMS7003;57018;50.278;19.134;2023-07-30T11:30:26;4.00;4.00;2.00
69746;PMS7003;57018;50.278;19.134;2023-07-30T11:32:57;5.00;5.00;2.00
69746;PMS7003;57018;50.278;19.134;2023-07-30T11:35:27;2.00;2.00;2.00
69746;PMS7003;57018;50.278;19.134;2023-07-30T11:37:58;2.00;2.00;2.00
69746;PMS7003;57018;50.278;19.134;2023-07-30T11:40:28;5.00;5.00;3.00
69746;PMS7003;57018;50.278;19.134;2023-07-30T11:45:26;4.00;4.00;3.00
69746;PMS7003;57018;50.278;19.134;2023-07-30T11:48:04;2.00;2.00;1.00
69746;PMS7003;57018;50.278;19.134;2023-07-30T11:50:46;3.67;3.67;3.00
69746;PMS7003;57018;50.278;19.134;2023-07-30T11:53:17;3.00;3.00;2.00
69746;PMS7003;57018;50.278;19.134;2023-07-30T11:55:47;3.50;3.50;3.00
69746;PMS7003;57018;50.278;19.134;2023-07-30T11:58:17;5.00;5.00;4.00
69746;PMS7003;57018;50.278;19.134;2023-07-30T12:00:47;9.50;9.50;6.50
69746;PMS7003;57018;50.278;19.134;2023-07-30T12:03:19;7.67;6.00;5.00
69746;PMS7003;57018;50.278;19.134;2023-07-30T12:05:49;4.00;4.00;3.00
69746;PMS7003;57018;50.278;19.134;2023-07-30T12:08:25;4.00;4.00;3.00
69746;PMS7003;57018;50.278;19.134;2023-07-30T12:10:55;4.50;4.50;3.00
69746;PMS7003;57018;50.278;19.134;2023-07-30T12:13:30;4.00;3.33;2.33
69746;PMS7003;57018;50.278;19.134;2023-07-30T12:16:00;4.00;4.00;3.00
69746;PMS7003;57018;50.278;19.134;2023-07-30T12:18:30;3.50;3.00;2.00
69746;PMS7003;57018;50.278;19.134;2023-07-30T12:21:00;4.00;4.00;3.00
69746;PMS7003;57018;50.278;19.134;2023-07-30T12:23:31;6.00;6.00;4.50
69746;PMS7003;57018;50.278;19.134;2023-07-30T12:26:01;5.00;5.00;3.00
69746;PMS7003;57018;50.278;19.134;2023-07-30T12:28:32;4.00;4.00;3.00
69746;PMS7003;57018;50.278;19.134;2023-07-30T12:31:05;5.50;5.00;4.00
69746;PMS7003;57018;50.278;19.134;2023-07-30T12:33:35;5.50;5.00;4.00
69746;PMS7003;57018;50.278;19.134;2023-07-30T12:36:05;5.00;5.00;3.00
69746;PMS7003;57018;50.278;19.134;2023-07-30T12:38:35;4.00;4.00;3.00
69746;PMS7003;57018;50.278;19.134;2023-07-30T12:41:05;4.00;4.00;3.50
69746;PMS7003;57018;50.278;19.134;2023-07-30T12:43:35;4.50;4.50;3.00
69746;PMS7003;57018;50.278;19.134;2023-07-30T12:46:05;6.00;6.00;5.00
69746;PMS7003;57018;50.278;19.134;2023-07-30T12:48:35;6.00;5.00;4.00
69746;PMS7003;57018;50.278;19.134;2023-07-30T12:51:17;7.00;7.00;5.00
69746;PMS7003;57018;50.278;19.134;2023-07-30T12:53:55;9.00;9.00;5.00
69746;PMS7003;57018;50.278;19.134;2023-07-30T12:56:25;6.00;5.00;3.00
69746;PMS7003;57018;50.278;19.134;2023-07-30T12:58:55;5.33;5.33;3.67
69746;PMS7003;57018;50.278;19.134;2023-07-30T13:01:25;7.00;7.00;4.00
69746;PMS7003;57018;50.278;19.134;2023-07-30T13:03:55;7.00;5.50;4.00
69746;PMS7003;57018;50.278;19.134;2023-07-30T13:06:24;3.00;3.00;2.00
69746;PMS7003;57018;50.278;19.134;2023-07-30T13:08:54;3.00;3.00;3.00
69746;PMS7003;57018;50.278;19.134;2023-07-30T13:11:24;4.00;4.00;3.33
69746;PMS7003;57018;50.278;19.134;2023-07-30T13:13:54;6.50;6.00;5.50
69746;PMS7003;57018;50.278;19.134;2023-07-30T13:16:24;5.00;5.00;3.00
69746;PMS7003;57018;50.278;19.134;2023-07-30T13:18:54;5.00;5.00;4.00
69746;PMS7003;57018;50.278;19.134;2023-07-30T13:21:26;4.00;4.00;3.00
69746;PMS7003;57018;50.278;19.134;2023-07-30T13:23:55;6.50;5.00;3.50
69746;PMS7003;57018;50.278;19.134;2023-07-30T13:26:25;4.50;4.50;3.00
69746;PMS7003;57018;50.278;19.134;2023-07-30T13:28:55;5.00;4.00;3.00
69746;PMS7003;57018;50.278;19.134;2023-07-30T13:31:25;6.50;5.50;4.50
69746;PMS7003;57018;50.278;19.134;2023-07-30T13:33:55;4.00;4.00;2.50
69746;PMS7003;57018;50.278;19.134;2023-07-30T13:36:24;6.50;6.50;5.00
69746;PMS7003;57018;50.278;19.134;2023-07-30T13:38:54;7.00;7.00;5.00
69746;PMS7003;57018;50.278;19.134;2023-07-30T13:41:24;3.00;2.00;2.00
69746;PMS7003;57018;50.278;19.134;2023-07-30T13:43:54;7.00;7.00;5.50
69746;PMS7003;57018;50.278;19.134;2023-07-30T13:46:24;4.67;4.67;3.33
69746;PMS7003;57018;50.278;19.134;2023-07-30T13:48:54;7.00;5.33;4.00
69746;PMS7003;57018;50.278;19.134;2023-07-30T13:51:24;4.00;4.00;2.00
69746;PMS7003;57018;50.278;19.134;2023-07-30T13:53:59;4.00;4.00;2.50
69746;PMS7003;57018;50.278;19.134;2023-07-30T13:56:29;6.00;5.00;4.00
69746;PMS7003;57018;50.278;19.134;2023-07-30T14:01:28;5.50;4.00;3.00
69746;PMS7003;57018;50.278;19.134;2023-07-30T14:03:58;5.00;5.00;4.00
69746;PMS7003;57018;50.278;19.134;2023-07-30T14:06:28;6.00;6.00;4.00
69746;PMS7003;57018;50.278;19.134;2023-07-30T14:08:58;5.00;5.00;4.00
69746;PMS7003;57018;50.278;19.134;2023-07-30T14:11:27;6.00;6.00;4.00
69746;PMS7003;57018;50.278;19.134;2023-07-30T14:14:00;6.00;5.00;4.00
69746;PMS7003;57018;50.278;19.134;2023-07-30T14:16:29;7.00;7.00;5.50
69746;PMS7003;57018;50.278;19.134;2023-07-30T14:18:59;4.00;4.00;3.00
69746;PMS7003;57018;50.278;19.134;2023-07-30T14:21:29;5.50;5.50;4.00
69746;PMS7003;57018;50.278;19.134;2023-07-30T14:23:59;6.00;4.00;3.00
69746;PMS7003;57018;50.278;19.134;2023-07-30T14:26:29;6.00;5.00;3.00
69746;PMS7003;57018;50.278;19.134;2023-07-30T14:28:59;4.00;4.00;3.00
69746;PMS7003;57018;50.278;19.134;2023-07-30T14:31:29;5.50;5.50;3.50
69746;PMS7003;57018;50.278;19.134;2023-07-30T14:33:59;4.00;4.00;3.00
69746;PMS7003;57018;50.278;19.134;2023-07-30T14:36:30;4.00;4.00;3.00
69746;PMS7003;57018;50.278;19.134;2023-07-30T14:39:00;4.00;4.00;2.50
69746;PMS7003;57018;50.278;19.134;2023-07-30T14:41:30;6.00;6.00;4.50
69746;PMS7003;57018;50.278;19.134;2023-07-30T14:44:00;9.67;6.33;4.33
69746;PMS7003;57018;50.278;19.134;2023-07-30T14:46:30;6.00;6.00;4.00
69746;PMS7003;57018;50.278;19.134;2023-07-30T14:49:00;6.50;6.50;5.00
69746;PMS7003;57018;50.278;19.134;2023-07-30T14:51:30;5.00;5.00;3.50